Time;durP1;ratioP1;P1;durP2;ratioP2;P2;SDS_P1;SDS_P2;PMS_P1;PMS_P2;Temp;Humidity;BMP_temperature;BMP_pressure;BME280_temperature;BME280_humidity;BME280_pressure;Samples;Min_cycle;Max_cycle;Signal;HPM_P1;HPM_P2
2022/02/16 00:00:36;;;;;;;;;1.50;1.50;;;;;12.18;67.93;100383.41;2072290;28;47336;-59
2022/02/16 00:01:37;;;;;;;;;1.00;1.00;;;;;12.19;67.75;100378.97;2072660;28;48060;-59
2022/02/16 00:02:38;;;;;;;;;1.00;1.00;;;;;12.18;67.54;100386.06;2072080;28;47190;-60
2022/02/16 00:03:39;;;;;;;;;1.50;1.00;;;;;12.18;67.77;100380.75;2072241;28;47554;-59
2022/02/16 00:04:39;;;;;;;;;2.33;2.33;;;;;12.16;67.76;100377.28;2072729;28;47205;-61
2022/02/16 00:05:40;;;;;;;;;2.00;1.00;;;;;12.15;67.68;100375.53;2072410;28;47246;-59
2022/02/16 00:06:40;;;;;;;;;1.67;1.67;;;;;12.16;67.97;100376.41;2072498;28;47968;-58
2022/02/16 00:07:41;;;;;;;;;2.67;2.67;;;;;12.17;67.83;100378.16;2072363;28;47766;-57
2022/02/16 00:08:41;;;;;;;;;2.67;2.67;;;;;12.16;67.79;100365.78;2072543;28;46702;-59
2022/02/16 00:09:42;;;;;;;;;1.00;1.00;;;;;12.16;67.83;100357.78;2072164;28;47894;-60
2022/02/16 00:10:42;;;;;;;;;4.00;3.00;;;;;12.16;68.20;100363.09;2072415;28;47257;-59
2022/02/16 00:11:43;;;;;;;;;1.67;1.67;;;;;12.16;67.85;100360.44;2072369;28;48110;-59
2022/02/16 00:12:44;;;;;;;;;1.00;1.00;;;;;12.16;67.78;100356.00;2071977;28;47021;-60
2022/02/16 00:13:44;;;;;;;;;2.00;2.00;;;;;12.17;67.88;100356.88;2071731;28;47256;-59
2022/02/16 00:14:44;;;;;;;;;0.67;0.67;;;;;12.17;67.92;100349.75;2072459;28;47809;-60
2022/02/16 00:15:45;;;;;;;;;1.00;1.00;;;;;12.18;67.82;100347.97;2072312;28;46687;-58
2022/02/16 00:16:46;;;;;;;;;1.00;1.00;;;;;12.17;67.53;100344.44;2072059;28;47762;-60
2022/02/16 00:17:47;;;;;;;;;1.00;1.00;;;;;12.17;67.93;100335.59;2072647;28;47555;-58
2022/02/16 00:18:48;;;;;;;;;1.00;1.00;;;;;12.17;67.87;100339.09;2072471;28;48156;-59
2022/02/16 00:19:48;;;;;;;;;0.00;0.00;;;;;12.18;67.93;100339.97;2072191;28;47891;-59
2022/02/16 00:20:49;;;;;;;;;1.00;1.00;;;;;12.18;68.10;100335.53;2071604;28;47940;-58
2022/02/16 00:21:53;;;;;;;;;1.00;1.00;;;;;12.19;67.85;100336.41;2072056;28;47571;-58
2022/02/16 00:22:53;;;;;;;;;0.75;0.75;;;;;12.19;67.64;100347.91;2072267;28;47750;-60
2022/02/16 00:23:54;;;;;;;;;1.00;1.00;;;;;12.19;67.93;100337.25;2072429;28;47399;-58
2022/02/16 00:24:54;;;;;;;;;0.00;0.00;;;;;12.19;68.05;100339.06;2072336;28;47479;-61
2022/02/16 00:25:55;;;;;;;;;1.00;1.00;;;;;12.19;67.92;100344.38;2072531;28;47305;-59
2022/02/16 00:26:56;;;;;;;;;0.00;0.00;;;;;12.18;67.98;100335.53;2071097;28;47658;-58
2022/02/16 00:27:57;;;;;;;;;1.00;1.00;;;;;12.18;68.08;100334.66;2072123;28;47678;-59
2022/02/16 00:28:57;;;;;;;;;0.67;0.00;;;;;12.18;67.75;100337.31;2072623;28;47899;-59
2022/02/16 00:29:58;;;;;;;;;0.00;0.00;;;;;12.18;68.03;100337.31;2062929;28;47413;-60
2022/02/16 00:30:58;;;;;;;;;1.67;0.33;;;;;12.18;68.20;100338.19;2063328;28;47892;-58
2022/02/16 00:31:59;;;;;;;;;1.00;1.00;;;;;12.18;68.30;100334.66;2071978;28;48105;-60
2022/02/16 00:32:59;;;;;;;;;1.00;0.00;;;;;12.19;67.85;100331.94;2072373;28;48082;-58
2022/02/16 00:33:59;;;;;;;;;1.00;1.00;;;;;12.18;67.91;100334.66;2072376;28;47858;-60
2022/02/16 00:35:00;;;;;;;;;0.00;0.00;;;;;12.18;68.12;100329.34;2072644;28;48031;-60
2022/02/16 00:36:01;;;;;;;;;1.00;1.00;;;;;12.18;68.11;100330.22;2072082;28;47826;-59
2022/02/16 00:37:01;;;;;;;;;0.33;0.33;;;;;12.16;68.11;100326.72;2072206;28;47315;-58
2022/02/16 00:38:03;;;;;;;;;2.00;0.50;;;;;12.15;68.14;100334.78;2072725;28;46129;-58
2022/02/16 00:39:04;;;;;;;;;0.33;0.33;;;;;12.15;68.00;100318.81;2072605;28;47574;-58
2022/02/16 00:40:06;;;;;;;;;0.00;0.00;;;;;12.14;67.72;100325.06;2072248;28;47330;-57
2022/02/16 00:41:06;;;;;;;;;0.75;0.75;;;;;12.15;68.06;100324.13;2072398;28;47933;-58
2022/02/16 00:42:07;;;;;;;;;0.00;0.00;;;;;12.15;68.17;100324.13;2072094;28;47455;-58
2022/02/16 00:43:07;;;;;;;;;1.00;1.00;;;;;12.14;68.22;100325.91;2072188;28;47597;-59
2022/02/16 00:44:08;;;;;;;;;0.00;0.00;;;;;12.15;67.98;100316.16;2072434;28;47658;-58
2022/02/16 00:45:09;;;;;;;;;0.67;0.67;;;;;12.17;68.12;100314.31;2072648;28;47868;-59
2022/02/16 00:46:10;;;;;;;;;0.25;0.25;;;;;12.16;68.21;100315.22;2072823;28;48146;-58
2022/02/16 00:47:12;;;;;;;;;0.00;0.00;;;;;12.17;68.29;100317.84;2071992;28;47609;-59
2022/02/16 00:48:14;;;;;;;;;1.00;1.00;;;;;12.18;68.22;100313.38;2072411;28;47362;-59
2022/02/16 00:49:14;;;;;;;;;0.00;0.00;;;;;12.17;68.23;100311.63;2072556;28;47766;-57
2022/02/16 00:50:15;;;;;;;;;0.00;0.00;;;;;12.16;68.23;100309.91;2072240;28;48193;-58
2022/02/16 00:51:15;;;;;;;;;0.00;0.00;;;;;12.15;67.85;100306.38;2072658;28;46396;-58
2022/02/16 00:52:17;;;;;;;;;0.00;0.00;;;;;12.16;68.28;100315.22;2072567;28;47782;-59
2022/02/16 00:53:18;;;;;;;;;0.00;0.00;;;;;12.16;68.36;100308.13;2072267;28;48301;-63
2022/02/16 00:54:18;;;;;;;;;0.00;0.00;;;;;12.16;68.33;100302.78;2072157;28;47336;-59
2022/02/16 00:55:19;;;;;;;;;0.00;0.00;;;;;12.15;68.42;100298.41;2062686;28;47550;-58
2022/02/16 00:56:19;;;;;;;;;0.00;0.00;;;;;12.15;68.12;100295.75;2063063;28;47621;-61
2022/02/16 00:57:20;;;;;;;;;0.00;0.00;;;;;12.15;68.39;100298.41;2072640;28;46112;-60
2022/02/16 00:58:20;;;;;;;;;0.00;0.00;;;;;12.17;68.14;100293.03;2072479;28;47840;-58
2022/02/16 00:59:20;;;;;;;;;0.00;0.00;;;;;12.16;68.40;100297.47;2072504;28;47626;-59
2022/02/16 01:00:21;;;;;;;;;0.00;0.00;;;;;12.16;68.29;100284.16;2072885;28;45270;-60
2022/02/16 01:01:21;;;;;;;;;0.00;0.00;;;;;12.17;68.29;100288.56;2071981;28;47310;-56
2022/02/16 01:02:22;;;;;;;;;1.00;1.00;;;;;12.16;68.12;100292.16;2072111;28;47843;-58
2022/02/16 01:03:22;;;;;;;;;0.00;0.00;;;;;12.18;68.29;100289.44;2072304;28;46561;-59
2022/02/16 01:04:24;;;;;;;;;0.00;0.00;;;;;12.19;68.46;100293.84;2072405;28;47693;-59
2022/02/16 01:05:24;;;;;;;;;0.00;0.00;;;;;12.19;68.39;100275.22;2072451;28;47748;-59
2022/02/16 01:06:25;;;;;;;;;0.00;0.00;;;;;12.19;68.38;100272.53;2072442;28;47928;-57
2022/02/16 01:07:25;;;;;;;;;1.00;1.00;;;;;12.18;68.22;100281.44;2071586;28;47544;-58
2022/02/16 01:08:26;;;;;;;;;0.00;0.00;;;;;12.20;68.36;100279.63;2063405;28;47210;-57
2022/02/16 01:09:27;;;;;;;;;0.00;0.00;;;;;12.19;68.37;100276.06;2071614;28;47350;-59
2022/02/16 01:10:27;;;;;;;;;1.00;1.00;;;;;12.19;68.45;100277.88;2072246;28;47709;-57
2022/02/16 01:11:28;;;;;;;;;0.67;0.67;;;;;12.20;68.45;100284.97;2072812;28;45919;-58
2022/02/16 01:12:28;;;;;;;;;0.00;0.00;;;;;12.19;68.29;100278.75;2072219;28;47092;-60
2022/02/16 01:13:29;;;;;;;;;1.00;0.00;;;;;12.18;68.27;100273.47;2072337;28;47538;-58
2022/02/16 01:14:29;;;;;;;;;0.00;0.00;;;;;12.18;68.40;100265.50;2072391;28;47553;-59
2022/02/16 01:15:30;;;;;;;;;1.67;0.33;;;;;12.18;68.55;100276.13;2072039;28;47392;-59
2022/02/16 01:16:30;;;;;;;;;0.50;0.50;;;;;12.18;68.59;100265.50;2072261;28;47702;-59
2022/02/16 01:17:31;;;;;;;;;1.00;0.67;;;;;12.17;68.63;100267.28;2062537;28;47903;-59
2022/02/16 01:18:31;;;;;;;;;0.00;0.00;;;;;12.17;68.47;100256.66;2062777;28;47761;-60
2022/02/16 01:19:32;;;;;;;;;0.00;0.00;;;;;12.18;68.66;100262.84;2072348;28;47746;-59
2022/02/16 01:20:32;;;;;;;;;0.00;0.00;;;;;12.17;68.42;100245.13;2072085;28;47100;-59
2022/02/16 01:21:32;;;;;;;;;0.33;0.00;;;;;12.16;68.61;100264.69;2072193;28;47408;-60
2022/02/16 01:22:33;;;;;;;;;0.00;0.00;;;;;12.15;68.59;100244.34;2071808;28;47524;-60
2022/02/16 01:23:34;;;;;;;;;0.67;0.67;;;;;12.15;68.74;100247.84;2072367;28;47196;-60
2022/02/16 01:24:34;;;;;;;;;0.00;0.00;;;;;12.15;68.76;100245.19;2071959;28;46827;-60
2022/02/16 01:25:34;;;;;;;;;0.00;0.00;;;;;12.16;68.79;100246.06;2071142;28;47590;-59
2022/02/16 01:26:35;;;;;;;;;0.00;0.00;;;;;12.16;68.69;100238.94;2071655;28;47608;-60
2022/02/16 01:27:35;;;;;;;;;1.00;1.00;;;;;12.18;68.72;100246.88;2071301;28;47780;-56
2022/02/16 01:28:36;;;;;;;;;1.00;1.00;;;;;12.17;68.73;100246.00;2071795;28;48235;-59
2022/02/16 01:29:36;;;;;;;;;0.67;0.67;;;;;12.18;68.88;100252.19;2072186;28;47791;-58
2022/02/16 01:30:36;;;;;;;;;0.67;0.67;;;;;12.16;68.57;100238.94;2071943;28;47654;-60
2022/02/16 01:31:37;;;;;;;;;0.33;0.33;;;;;12.16;68.76;100238.94;2072275;28;47586;-58
2022/02/16 01:32:38;;;;;;;;;1.00;1.00;;;;;12.17;68.85;100242.47;2071729;28;47381;-60
2022/02/16 01:33:38;;;;;;;;;0.00;0.00;;;;;12.15;68.78;100247.00;2072407;28;47257;-58
2022/02/16 01:34:39;;;;;;;;;1.00;1.00;;;;;12.15;68.79;100239.88;2071876;28;47564;-58
2022/02/16 01:35:39;;;;;;;;;0.00;0.00;;;;;12.14;69.17;100237.28;2071697;28;47833;-59
2022/02/16 01:36:40;;;;;;;;;0.00;0.00;;;;;12.13;68.94;100241.72;2071881;28;47494;-59
2022/02/16 01:37:40;;;;;;;;;0.00;0.00;;;;;12.12;68.87;100237.34;2071912;28;48411;-60
2022/02/16 01:38:41;;;;;;;;;0.67;0.67;;;;;12.13;68.90;100246.19;2071942;28;47246;-59
2022/02/16 01:39:41;;;;;;;;;0.67;0.67;;;;;12.11;69.20;100227.63;2071798;28;47986;-59
2022/02/16 01:40:42;;;;;;;;;0.67;0.67;;;;;12.11;69.05;100230.28;2071723;28;47193;-59
2022/02/16 01:41:43;;;;;;;;;0.00;0.00;;;;;12.10;68.83;100231.22;2072230;28;47489;-59
2022/02/16 01:42:45;;;;;;;;;1.00;1.00;;;;;12.09;69.34;100234.78;2071732;28;47957;-59
2022/02/16 01:43:50;;;;;;;;;1.00;1.00;;;;;12.07;68.95;100221.56;2072010;28;47993;-57
2022/02/16 01:44:51;;;;;;;;;0.00;0.00;;;;;12.07;69.25;100221.56;2071928;28;47719;-57
2022/02/16 01:45:51;;;;;;;;;0.00;0.00;;;;;12.07;69.28;100223.34;2071977;28;47442;-60
2022/02/16 01:46:54;;;;;;;;;1.00;1.00;;;;;12.07;69.16;100218.88;2071921;28;47515;-58
2022/02/16 01:47:56;;;;;;;;;0.50;0.50;;;;;12.07;69.27;100229.53;2071809;28;47626;-58
2022/02/16 01:48:56;;;;;;;;;0.00;0.00;;;;;12.06;69.62;100206.50;2071695;28;47353;-60
2022/02/16 01:49:57;;;;;;;;;0.00;0.00;;;;;12.06;69.38;100218.91;2071782;28;47325;-60
2022/02/16 01:50:57;;;;;;;;;0.00;0.00;;;;;12.05;69.62;100215.41;2072144;28;47510;-59
2022/02/16 01:51:58;;;;;;;;;0.00;0.00;;;;;12.04;69.36;100218.97;2071715;28;47692;-61
2022/02/16 01:52:58;;;;;;;;;1.75;0.75;;;;;12.04;69.70;100203.03;2071811;28;48584;-58
2022/02/16 01:53:59;;;;;;;;;2.00;1.00;;;;;12.04;69.43;100202.16;2071791;28;47776;-58
2022/02/16 01:55:00;;;;;;;;;0.00;0.00;;;;;12.03;69.37;100201.28;2071463;28;47521;-60
2022/02/16 01:56:00;;;;;;;;;0.00;0.00;;;;;12.03;69.30;100203.94;2071053;28;47577;-59
2022/02/16 01:57:01;;;;;;;;;0.00;0.00;;;;;12.03;69.33;100198.63;2071370;28;47626;-57
2022/02/16 01:58:03;;;;;;;;;0.00;0.00;;;;;12.03;69.62;100206.59;2071800;28;47844;-59
2022/02/16 01:59:03;;;;;;;;;1.25;1.00;;;;;12.03;69.46;100206.59;2072087;28;47699;-61
2022/02/16 02:00:05;;;;;;;;;0.00;0.00;;;;;12.04;69.53;100208.34;2072107;28;47890;-58
2022/02/16 02:01:06;;;;;;;;;0.00;0.00;;;;;12.05;68.98;100198.56;2072166;28;47506;-59
2022/02/16 02:02:07;;;;;;;;;0.25;0.25;;;;;12.04;69.47;100194.19;2071831;28;47319;-59
2022/02/16 02:03:07;;;;;;;;;0.00;0.00;;;;;12.05;69.71;100198.56;2054528;28;47279;-58
2022/02/16 02:04:08;;;;;;;;;0.00;0.00;;;;;12.04;69.58;100200.34;2046367;28;46338;-58
2022/02/16 02:05:11;;;;;;;;;0.00;0.00;;;;;12.04;69.65;100187.06;2070626;28;47615;-58
2022/02/16 02:06:11;;;;;;;;;0.75;0.00;;;;;12.04;69.52;100187.06;2071685;28;48031;-60
2022/02/16 02:07:12;;;;;;;;;1.00;0.00;;;;;12.05;69.53;100203.88;2071990;28;47424;-58
2022/02/16 02:08:12;;;;;;;;;0.33;0.33;;;;;12.05;69.54;100185.28;2071578;28;47661;-58
2022/02/16 02:09:15;;;;;;;;;0.00;0.00;;;;;12.05;69.79;100183.47;2071926;28;48083;-57
2022/02/16 02:10:16;;;;;;;;;0.00;0.00;;;;;12.05;69.67;100180.81;2071458;28;47527;-59
2022/02/16 02:11:16;;;;;;;;;0.00;0.00;;;;;12.05;69.68;100186.13;2071558;28;47721;-59
2022/02/16 02:12:16;;;;;;;;;0.00;0.00;;;;;12.06;69.54;100187.00;2071748;28;47674;-57
2022/02/16 02:13:19;;;;;;;;;0.00;0.00;;;;;12.06;69.53;100182.56;2071691;28;47405;-59
2022/02/16 02:14:19;;;;;;;;;0.00;0.00;;;;;12.05;69.73;100187.94;2071917;28;47710;-58
2022/02/16 02:15:21;;;;;;;;;0.00;0.00;;;;;12.06;69.77;100185.22;2072041;28;47400;-59
2022/02/16 02:16:22;;;;;;;;;2.00;0.00;;;;;12.06;69.74;100177.22;2071834;28;47442;-60
2022/02/16 02:17:22;;;;;;;;;0.33;0.33;;;;;12.07;69.76;100162.16;2071895;28;47446;-58
2022/02/16 02:18:23;;;;;;;;;0.00;0.00;;;;;12.07;69.90;100171.03;2071711;28;47906;-59
2022/02/16 02:19:24;;;;;;;;;1.00;1.00;;;;;12.08;69.59;100177.22;2071459;28;47837;-56
2022/02/16 02:20:25;;;;;;;;;0.33;0.33;;;;;12.08;69.82;100171.88;2071913;28;47497;-60
2022/02/16 02:21:26;;;;;;;;;0.00;0.00;;;;;12.09;69.74;100173.63;2071677;28;47404;-60
2022/02/16 02:22:26;;;;;;;;;0.00;0.00;;;;;12.09;69.85;100162.97;2071507;28;47607;-57
2022/02/16 02:23:27;;;;;;;;;0.00;0.00;;;;;12.10;69.89;100154.06;2071061;28;47701;-59
2022/02/16 02:24:28;;;;;;;;;0.00;0.00;;;;;12.10;69.67;100162.06;2071473;28;47510;-59
2022/02/16 02:25:28;;;;;;;;;1.00;1.00;;;;;12.11;69.74;100163.78;2071801;28;47415;-59
2022/02/16 02:26:29;;;;;;;;;0.00;0.00;;;;;12.12;70.03;100164.66;2071825;28;48178;-59
2022/02/16 02:27:29;;;;;;;;;0.00;0.00;;;;;12.13;69.76;100163.72;2071887;28;47606;-59
2022/02/16 02:28:30;;;;;;;;;0.00;0.00;;;;;12.12;69.69;100162.84;2070317;28;48009;-58
2022/02/16 02:29:31;;;;;;;;;2.00;0.00;;;;;12.14;69.80;100168.13;2064197;28;47624;-58
2022/02/16 02:30:31;;;;;;;;;0.75;0.75;;;;;12.13;69.96;100156.63;2071542;28;47919;-60
2022/02/16 02:31:38;;;;;;;;;0.33;0.33;;;;;12.13;69.87;100158.41;2071596;28;47726;-58
2022/02/16 02:32:43;;;;;;;;;0.25;0.25;;;;;12.13;70.02;100164.59;2072043;28;47548;-59
2022/02/16 02:33:43;;;;;;;;;0.25;0.25;;;;;12.13;69.98;100150.44;2071119;28;47804;-60
2022/02/16 02:34:44;;;;;;;;;1.00;1.00;;;;;12.13;69.98;100142.44;2070514;28;47750;-59
2022/02/16 02:35:44;;;;;;;;;0.00;0.00;;;;;12.13;69.98;100143.31;2070874;28;47881;-58
2022/02/16 02:36:44;;;;;;;;;1.00;1.00;;;;;12.14;69.91;100147.72;2070051;28;47712;-55
2022/02/16 02:37:45;;;;;;;;;2.67;1.00;;;;;12.16;70.10;100144.97;2070876;28;47981;-58
2022/02/16 02:38:45;;;;;;;;;2.00;2.00;;;;;12.15;70.12;100136.13;2072039;28;47596;-59
2022/02/16 02:39:46;;;;;;;;;1.00;1.00;;;;;12.15;69.79;100138.78;2071456;28;47422;-59
2022/02/16 02:40:57;;;;;;;;;1.00;1.00;;;;;12.15;69.99;100128.16;2071827;28;46342;-58
2022/02/16 02:41:58;;;;;;;;;0.75;0.75;;;;;12.15;70.04;100128.16;2063701;28;47865;-58
2022/02/16 02:42:58;;;;;;;;;1.00;1.00;;;;;12.15;70.09;100130.81;2067753;28;47425;-59
2022/02/16 02:43:59;;;;;;;;;1.00;1.00;;;;;12.16;70.29;100126.38;2061720;28;47718;-59
2022/02/16 02:45:02;;;;;;;;;0.00;0.00;;;;;12.15;70.17;100114.84;2062170;28;47693;-58
2022/02/16 02:46:03;;;;;;;;;1.00;1.00;;;;;12.16;70.19;100115.72;2071810;28;47978;-58
2022/02/16 02:47:03;;;;;;;;;0.00;0.00;;;;;12.16;70.17;100113.06;2071392;28;48054;-60
2022/02/16 02:48:04;;;;;;;;;1.00;1.00;;;;;12.16;70.34;100121.03;2071247;28;47469;-59
2022/02/16 02:49:05;;;;;;;;;1.00;1.00;;;;;12.15;70.41;100125.50;2071379;28;47556;-57
2022/02/16 02:50:06;;;;;;;;;0.00;0.00;;;;;12.14;70.54;100107.81;2071682;28;47408;-59
2022/02/16 02:51:07;;;;;;;;;0.00;0.00;;;;;12.15;70.62;100108.69;2071601;28;48086;-60
2022/02/16 02:52:09;;;;;;;;;0.00;0.00;;;;;12.14;70.34;100117.56;2071292;28;47153;-59
2022/02/16 02:53:10;;;;;;;;;1.50;0.25;;;;;12.14;70.54;100115.78;2063459;28;47480;-58
2022/02/16 02:54:10;;;;;;;;;0.00;0.00;;;;;12.14;70.82;100113.13;2066879;28;47757;-58
2022/02/16 02:55:13;;;;;;;;;0.00;0.00;;;;;12.14;70.42;100102.50;2071531;28;47545;-58
2022/02/16 02:56:13;;;;;;;;;0.00;0.00;;;;;12.16;70.28;100105.09;2071345;28;47802;-60
2022/02/16 02:57:14;;;;;;;;;0.33;0.33;;;;;12.15;70.38;100104.22;2071903;28;47373;-57
2022/02/16 02:58:15;;;;;;;;;0.00;0.00;;;;;12.16;70.44;100097.09;2071870;28;47629;-59
2022/02/16 02:59:15;;;;;;;;;0.00;0.00;;;;;12.16;70.26;100091.78;2071588;28;46495;-59
2022/02/16 03:00:16;;;;;;;;;0.00;0.00;;;;;12.17;70.54;100093.53;2071766;28;47638;-58
2022/02/16 03:01:16;;;;;;;;;0.00;0.00;;;;;12.17;70.66;100090.84;2071738;28;47635;-59
2022/02/16 03:02:17;;;;;;;;;0.00;0.00;;;;;12.17;70.53;100094.38;2071328;28;47667;-60
2022/02/16 03:03:17;;;;;;;;;0.00;0.00;;;;;12.16;70.53;100092.66;2071312;28;47044;-59
2022/02/16 03:04:18;;;;;;;;;0.67;0.67;;;;;12.17;70.36;100093.53;2071413;28;48046;-60
2022/02/16 03:05:18;;;;;;;;;0.00;0.00;;;;;12.18;70.53;100090.78;2071143;28;47540;-58
2022/02/16 03:06:18;;;;;;;;;0.00;0.00;;;;;12.19;70.33;100076.56;2071709;28;47791;-58
2022/02/16 03:07:19;;;;;;;;;0.00;0.00;;;;;12.19;70.50;100083.69;2071334;28;47533;-59
2022/02/16 03:08:19;;;;;;;;;0.00;0.00;;;;;12.19;70.44;100079.22;2070938;28;47707;-58
2022/02/16 03:09:19;;;;;;;;;0.00;0.00;;;;;12.20;70.41;100083.66;2070164;28;47870;-59
2022/02/16 03:10:20;;;;;;;;;0.00;0.00;;;;;12.21;70.67;100072.09;2069885;28;47205;-59
2022/02/16 03:11:21;;;;;;;;;1.00;0.00;;;;;12.21;70.54;100071.22;2071484;28;47550;-59
2022/02/16 03:12:21;;;;;;;;;0.00;0.00;;;;;12.21;70.58;100073.88;2071073;28;47612;-60
2022/02/16 03:13:22;;;;;;;;;0.00;0.00;;;;;12.22;70.71;100067.63;2071631;28;47946;-59
2022/02/16 03:14:22;;;;;;;;;0.00;0.00;;;;;12.22;70.52;100067.63;2071294;28;47280;-58
2022/02/16 03:15:23;;;;;;;;;0.00;0.00;;;;;12.22;70.62;100055.19;2071503;28;47580;-58
2022/02/16 03:16:23;;;;;;;;;0.67;0.67;;;;;12.22;70.55;100059.66;2071334;28;47394;-58
2022/02/16 03:17:28;;;;;;;;;0.00;0.00;;;;;12.22;70.67;100059.66;2071866;28;47659;-58
2022/02/16 03:18:29;;;;;;;;;0.25;0.25;;;;;12.21;70.67;100052.59;2071291;28;47585;-58
2022/02/16 03:19:32;;;;;;;;;0.00;0.00;;;;;12.20;70.74;100049.06;2071475;28;48371;-58
2022/02/16 03:20:32;;;;;;;;;0.00;0.00;;;;;12.21;70.93;100053.47;2071246;28;47437;-58
2022/02/16 03:21:33;;;;;;;;;0.00;0.00;;;;;12.21;70.83;100042.81;2061888;28;47875;-58
2022/02/16 03:22:37;;;;;;;;;0.00;0.00;;;;;12.20;70.78;100053.53;2062343;28;47837;-59
2022/02/16 03:23:37;;;;;;;;;0.00;0.00;;;;;12.22;70.74;100049.00;2071288;28;47873;-59
2022/02/16 03:24:38;;;;;;;;;0.00;0.00;;;;;12.22;70.84;100043.69;2071120;28;48023;-58
2022/02/16 03:25:38;;;;;;;;;0.00;0.00;;;;;12.22;70.72;100044.56;2071482;28;47432;-60
2022/02/16 03:26:39;;;;;;;;;0.00;0.00;;;;;12.24;70.96;100049.81;2063241;28;47532;-59
2022/02/16 03:27:39;;;;;;;;;0.00;0.00;;;;;12.24;70.91;100048.00;2066114;28;47512;-59
2022/02/16 03:28:39;;;;;;;;;0.00;0.00;;;;;12.24;71.08;100052.47;2071788;28;47455;-58
2022/02/16 03:29:40;;;;;;;;;0.00;0.00;;;;;12.24;70.84;100052.47;2071700;28;47517;-58
2022/02/16 03:30:40;;;;;;;;;0.00;0.00;;;;;12.25;70.96;100049.75;2071741;28;48074;-58
2022/02/16 03:31:42;;;;;;;;;0.00;0.00;;;;;12.25;70.68;100048.88;2071223;28;47417;-59
2022/02/16 03:32:42;;;;;;;;;0.00;0.00;;;;;12.26;70.97;100046.16;2071220;28;47768;-57
2022/02/16 03:33:45;;;;;;;;;0.00;0.00;;;;;12.27;71.01;100042.56;2071170;28;47447;-58
2022/02/16 03:34:45;;;;;;;;;0.00;0.00;;;;;12.26;71.07;100039.97;2071395;28;47714;-59
2022/02/16 03:35:45;;;;;;;;;0.00;0.00;;;;;12.27;70.87;100039.03;2071322;28;47404;-59
2022/02/16 03:36:46;;;;;;;;;0.00;0.00;;;;;12.28;71.02;100032.78;2071463;28;46327;-59
2022/02/16 03:37:46;;;;;;;;;0.00;0.00;;;;;12.28;70.86;100033.66;2071674;28;47817;-59
2022/02/16 03:38:47;;;;;;;;;0.00;0.00;;;;;12.30;70.74;100029.13;2071458;28;47961;-57
2022/02/16 03:39:47;;;;;;;;;0.00;0.00;;;;;12.31;70.89;100037.97;2071116;28;47475;-58
2022/02/16 03:40:47;;;;;;;;;0.00;0.00;;;;;12.30;71.08;100034.44;2061688;28;47752;-60
2022/02/16 03:41:49;;;;;;;;;0.00;0.00;;;;;12.31;71.03;100045.97;2062092;28;48186;-60
2022/02/16 03:42:49;;;;;;;;;0.00;0.00;;;;;12.32;70.82;100031.72;2071341;28;47721;-58
2022/02/16 03:43:50;;;;;;;;;0.00;0.00;;;;;12.32;70.91;100029.97;2071188;28;47590;-59
2022/02/16 03:44:50;;;;;;;;;0.00;0.00;;;;;12.32;70.98;100021.09;2071378;28;47466;-59
2022/02/16 03:45:50;;;;;;;;;2.00;0.33;;;;;12.31;71.03;100020.22;2070686;28;47244;-59
2022/02/16 03:46:55;;;;;;;;;0.00;0.00;;;;;12.32;70.98;100027.31;2070640;28;46481;-58
2022/02/16 03:47:56;;;;;;;;;0.50;0.00;;;;;12.33;71.03;100029.03;2071349;28;47508;-60
2022/02/16 03:48:56;;;;;;;;;0.00;0.00;;;;;12.35;71.18;100036.94;2071223;28;47594;-60
2022/02/16 03:49:56;;;;;;;;;0.00;0.00;;;;;12.35;70.95;100032.50;2070988;28;47367;-59
2022/02/16 03:50:57;;;;;;;;;0.00;0.00;;;;;12.35;70.80;100024.50;2071217;28;47507;-59
2022/02/16 03:51:57;;;;;;;;;0.00;0.00;;;;;12.36;71.12;100028.03;2070988;28;47505;-59
2022/02/16 03:52:58;;;;;;;;;0.00;0.00;;;;;12.36;70.93;100025.38;2071237;28;47416;-60
2022/02/16 03:53:58;;;;;;;;;0.00;0.00;;;;;12.37;70.98;100024.44;2070837;28;47523;-60
2022/02/16 03:54:59;;;;;;;;;0.00;0.00;;;;;12.37;71.11;100024.44;2071110;28;47526;-60
2022/02/16 03:56:01;;;;;;;;;0.00;0.00;;;;;12.36;70.89;100026.25;2069372;28;47581;-59
2022/02/16 03:57:01;;;;;;;;;0.00;0.00;;;;;12.37;71.09;100021.78;2067018;28;47389;-58
2022/02/16 03:58:02;;;;;;;;;0.00;0.00;;;;;12.38;71.34;100019.06;2070104;28;47519;-59
2022/02/16 03:59:02;;;;;;;;;0.00;0.00;;;;;12.37;70.96;100009.34;2072444;28;47891;-60
2022/02/16 04:00:05;;;;;;;;;0.00;0.00;;;;;12.39;71.09;100011.94;2072840;28;47295;-59
2022/02/16 04:01:05;;;;;;;;;0.00;0.00;;;;;12.40;71.16;100012.81;2062840;28;47912;-57
2022/02/16 04:02:06;;;;;;;;;0.00;0.00;;;;;12.40;70.94;100004.81;2063401;28;47941;-58
2022/02/16 04:03:09;;;;;;;;;0.00;0.00;;;;;12.39;71.21;100022.59;2072712;28;47224;-59
2022/02/16 04:04:10;;;;;;;;;0.00;0.00;;;;;12.40;71.36;100021.66;2072445;28;47613;-59
2022/02/16 04:05:11;;;;;;;;;1.00;0.00;;;;;12.41;71.31;100011.88;2072475;28;47573;-57
2022/02/16 04:06:12;;;;;;;;;0.00;0.00;;;;;12.40;71.21;100020.78;2072421;28;47634;-59
2022/02/16 04:07:12;;;;;;;;;0.00;0.00;;;;;12.41;71.27;100017.19;2070529;28;48222;-59
2022/02/16 04:08:13;;;;;;;;;0.00;0.00;;;;;12.40;71.19;100011.00;2072596;28;48249;-59
2022/02/16 04:09:14;;;;;;;;;0.00;0.00;;;;;12.41;71.28;100001.25;2072306;28;47836;-59
2022/02/16 04:10:15;;;;;;;;;0.00;0.00;;;;;12.41;71.31;100011.88;2062840;28;47990;-58
2022/02/16 04:11:17;;;;;;;;;0.00;0.00;;;;;12.41;71.32;100003.91;2063214;28;48079;-58
2022/02/16 04:12:18;;;;;;;;;0.00;0.00;;;;;12.41;71.30;100009.22;2072466;28;48187;-57
2022/02/16 04:13:18;;;;;;;;;0.00;0.00;;;;;12.41;71.44;100004.75;2072042;28;47484;-59
2022/02/16 04:14:18;;;;;;;;;0.00;0.00;;;;;12.41;71.31;100003.91;2072428;28;47690;-61
2022/02/16 04:15:19;;;;;;;;;0.00;0.00;;;;;12.41;71.32;100007.41;2072444;28;47341;-59
2022/02/16 04:16:23;;;;;;;;;0.00;0.00;;;;;12.42;71.46;100002.97;2072640;28;47479;-59
2022/02/16 04:17:24;;;;;;;;;0.00;0.00;;;;;12.42;71.44;99997.66;2072362;28;47846;-61
2022/02/16 04:18:24;;;;;;;;;0.00;0.00;;;;;12.42;71.27;100003.81;2072929;28;47487;-58
2022/02/16 04:19:24;;;;;;;;;0.00;0.00;;;;;12.43;71.36;100005.56;2072418;28;47752;-58
2022/02/16 04:20:25;;;;;;;;;0.00;0.00;;;;;12.42;71.43;99995.84;2072498;28;47855;-59
2022/02/16 04:21:25;;;;;;;;;0.00;0.00;;;;;12.42;71.37;99990.53;2072593;28;47435;-59
2022/02/16 04:22:26;;;;;;;;;0.00;0.00;;;;;12.43;71.36;99991.38;2072430;28;47435;-59
2022/02/16 04:23:26;;;;;;;;;0.00;0.00;;;;;12.44;71.43;100004.63;2072342;28;47435;-59
2022/02/16 04:24:27;;;;;;;;;0.00;0.00;;;;;12.45;71.23;100001.06;2072503;28;47773;-59
2022/02/16 04:25:27;;;;;;;;;0.00;0.00;;;;;12.46;71.58;100001.94;2072301;28;47528;-58
2022/02/16 04:26:27;;;;;;;;;0.00;0.00;;;;;12.45;71.84;100000.16;2072575;28;47799;-60
2022/02/16 04:27:28;;;;;;;;;0.00;0.00;;;;;12.46;71.49;100002.81;2072699;28;47110;-58
2022/02/16 04:28:28;;;;;;;;;0.00;0.00;;;;;12.47;71.64;100006.31;2072670;28;47368;-59
2022/02/16 04:29:29;;;;;;;;;0.00;0.00;;;;;12.46;71.49;100005.47;2072154;28;47329;-59
2022/02/16 04:30:29;;;;;;;;;0.00;0.00;;;;;12.48;71.65;100006.25;2071993;28;47795;-59
2022/02/16 04:31:29;;;;;;;;;0.00;0.00;;;;;12.48;71.73;100000.94;2072426;28;47892;-56
2022/02/16 04:32:30;;;;;;;;;0.00;0.00;;;;;12.49;71.70;100007.13;2072549;28;47475;-59
2022/02/16 04:33:30;;;;;;;;;0.00;0.00;;;;;12.48;71.67;99998.28;2072169;28;47942;-59
2022/02/16 04:34:32;;;;;;;;;0.00;0.00;;;;;12.47;71.66;99999.22;2067170;28;47815;-58
2022/02/16 04:35:32;;;;;;;;;0.00;0.00;;;;;12.49;71.49;100001.81;2071950;28;47513;-59
2022/02/16 04:36:33;;;;;;;;;0.00;0.00;;;;;12.50;71.83;100004.41;2071826;28;46943;-59
2022/02/16 04:37:35;;;;;;;;;0.00;0.00;;;;;12.50;71.73;100001.75;2072383;28;48033;-58
2022/02/16 04:38:35;;;;;;;;;0.00;0.00;;;;;12.50;71.69;100003.53;2072123;28;47903;-59
2022/02/16 04:39:36;;;;;;;;;0.00;0.00;;;;;12.49;71.72;99997.34;2072354;28;47362;-62
2022/02/16 04:40:37;;;;;;;;;0.00;0.00;;;;;12.51;71.91;99995.47;2072046;28;47517;-60
2022/02/16 04:41:38;;;;;;;;;0.00;0.00;;;;;12.52;71.77;99993.69;2072249;28;47563;-58
2022/02/16 04:42:38;;;;;;;;;0.00;0.00;;;;;12.51;71.62;99992.81;2072029;28;47304;-59
2022/02/16 04:43:39;;;;;;;;;0.00;0.00;;;;;12.53;71.36;99996.28;2072288;28;47520;-59